To NAV CANADA Home Page Login to a new session Search on AWWS site Feedback and Comments Disclaimer Vers la page française équivalente Tips FAQ What's new on the site To the Forecasts and Observations / NOTAM section To "File a Flight Plan" website Publications and other links Update of the User's profile FIC Telephone Numbers My Weather Data Folder Route Weather Data Regional Weather Data Local Weather Data To the Forecasts and Observations / NOTAM section
Request Generated 03/30/2015 at 09:20:15 UTC . Weather information available at that time is displayed.

METAR/TAF

VANCOUVER/VANCOUVER INTL/BC    

METAR CYVR 300900Z 06010KT 15SM FEW005 SCT022 OVC034 10/09 A3009 RMK
ST2SC1SC5 SLP190=
SPECI CYVR 300848Z 08010KT 15SM FEW011 BKN022 OVC037 10/09 A3009 RMK
SC1SC4SC3 SLP190=
SPECI CYVR 300808Z 08008KT 4SM -RA BR FEW004 SCT012 OVC022 10/09
A3010 RMK SF1ST3SC4 SLP192=
METAR CYVR 300800Z 08007KT 4SM -RA BR FEW002 BKN014 OVC021 10/09
A3010 RMK SF1ST4SC3 SLP193=
SPECI CYVR 300718Z 06006KT 8SM -RA FEW004 BKN010 OVC018 10/09 A3011
RMK SF1ST6SC1 SLP197=
METAR CYVR 300700Z 06006KT 2 1/2SM -RA BR FEW003 BKN010 OVC017 10/09
A3012 RMK SF2ST4SC2 SLP198=

TAF CYVR 300838Z 3009/3112 09008KT 6SM -RA BR FEW004 SCT010 OVC025
TEMPO 3009/3019 2SM SHRA BR SCT004 BKN008 OVC015 PROB30
3009/3015 1SM SHRA BR OVC003
FM301900 09010KT P6SM SCT015 BKN040 OVC160 TEMPO 3019/3102 P6SM
-SHRA BKN015 OVC040
FM310200 12010KT P6SM -RA SCT015 OVC030 TEMPO 3102/3108 2SM SHRA
BR SCT006 OVC015
BECMG 3106/3108 27010KT
FM310800 27010KT P6SM BKN050
BECMG 3110/3112 28012G22KT
RMK NXT FCST BY 301200Z=
Your time UTC time
Weather data provided by Environment Canada and NAV CANADA